Time;durP1;ratioP1;P1;durP2;ratioP2;P2;SDS_P1;SDS_P2;PMS_P1;PMS_P2;Temp;Humidity;BMP_temperature;BMP_pressure;BME280_temperature;BME280_humidity;BME280_pressure;Samples;Min_cycle;Max_cycle;Signal;HPM_P1;HPM_P2
2022/12/18 00:01:52;;;;;;;23.85;9.73;;;-1.20;99.90;;;;;;5077950;28;20098;-74
2022/12/18 00:04:23;;;;;;;16.58;6.68;;;-1.20;99.90;;;;;;5048447;28;20526;-74
2022/12/18 00:06:49;;;;;;;24.73;9.02;;;-1.20;99.90;;;;;;5055285;28;20032;-74
2022/12/18 00:09:15;;;;;;;21.63;8.50;;;-1.20;99.90;;;;;;5106047;28;20058;-74
2022/12/18 00:11:41;;;;;;;16.60;9.00;;;-1.30;99.90;;;;;;5102620;27;20056;-74
2022/12/18 00:14:07;;;;;;;18.63;7.15;;;-1.30;99.90;;;;;;5085205;28;20506;-74
2022/12/18 00:16:35;;;;;;;16.40;7.13;;;-1.30;99.90;;;;;;5077898;28;20126;-74
2022/12/18 00:19:01;;;;;;;13.77;7.63;;;-1.20;99.90;;;;;;5066816;28;20498;-74
2022/12/18 00:21:29;;;;;;;23.65;9.90;;;-1.20;99.90;;;;;;5051652;28;20127;-74
2022/12/18 00:23:54;;;;;;;17.13;7.35;;;-1.10;99.90;;;;;;5101308;28;20036;-74
2022/12/18 00:26:23;;;;;;;14.48;9.80;;;-1.10;99.90;;;;;;5053708;28;20040;-74
2022/12/18 00:28:49;;;;;;;21.08;7.68;;;-1.10;99.90;;;;;;5084665;28;20082;-74
2022/12/18 00:31:17;;;;;;;18.05;8.20;;;-1.10;99.90;;;;;;5083255;28;20044;-74
2022/12/18 00:33:43;;;;;;;23.50;9.13;;;-1.10;99.90;;;;;;5068022;28;20055;-74
2022/12/18 00:36:20;;;;;;;25.13;11.75;;;-1.10;99.90;;;;;;5049936;28;20041;-74
2022/12/18 00:38:46;;;;;;;20.80;7.07;;;-1.20;99.90;;;;;;5102091;28;20076;-74
2022/12/18 00:42:55;;;;;;;23.15;10.27;;;-1.30;99.90;;;;;;5101163;28;20029;-74
2022/12/18 00:44:00;;;;;;;17.55;8.55;;;-1.30;99.90;;;;;;5067426;28;20052;-74
2022/12/18 00:46:25;;;;;;;23.40;10.15;;;-1.30;99.90;;;;;;5094408;28;20397;-74
2022/12/18 00:48:51;;;;;;;21.70;10.02;;;-1.30;99.90;;;;;;5076367;28;20066;-74
2022/12/18 00:51:17;;;;;;;22.10;10.98;;;-1.30;99.90;;;;;;5105238;28;20036;-74
2022/12/18 00:53:42;;;;;;;15.30;8.82;;;-1.30;99.90;;;;;;5088253;28;20039;-74
2022/12/18 00:56:08;;;;;;;28.05;11.50;;;-1.30;99.90;;;;;;5070397;28;20127;-75
2022/12/18 00:58:35;;;;;;;22.42;10.77;;;-1.30;99.90;;;;;;5065917;28;20036;-75
2022/12/18 01:01:00;;;;;;;14.00;6.75;;;-1.30;99.90;;;;;;5099372;28;20513;-75
2022/12/18 01:03:26;;;;;;;18.63;10.75;;;-1.30;99.90;;;;;;5074459;28;20029;-75
2022/12/18 01:05:51;;;;;;;25.85;10.90;;;-1.20;99.90;;;;;;5073552;28;20040;-75
2022/12/18 01:08:17;;;;;;;15.30;8.10;;;-1.20;99.90;;;;;;5084623;28;20047;-75
2022/12/18 01:10:43;;;;;;;16.65;7.40;;;-1.30;99.90;;;;;;5084492;28;20047;-75
2022/12/18 01:13:08;;;;;;;22.75;9.88;;;-1.30;99.90;;;;;;5066452;28;20044;-75
2022/12/18 01:15:34;;;;;;;29.92;10.65;;;-1.30;99.90;;;;;;5098681;28;20048;-75
2022/12/18 01:17:59;;;;;;;18.55;8.80;;;-1.30;99.90;;;;;;5085949;28;20526;-75
2022/12/18 01:20:25;;;;;;;18.20;8.10;;;-1.40;99.90;;;;;;5101861;27;20040;-75
2022/12/18 01:22:51;;;;;;;19.85;8.32;;;-1.40;99.90;;;;;;5105671;28;20508;-75
2022/12/18 01:25:16;;;;;;;20.33;11.18;;;-1.30;99.90;;;;;;5073578;28;20119;-75
2022/12/18 01:27:43;;;;;;;22.80;10.32;;;-1.40;99.90;;;;;;5071524;28;20037;-75
2022/12/18 01:30:09;;;;;;;24.02;10.15;;;-1.40;99.90;;;;;;5087314;28;20086;-75
2022/12/18 01:32:34;;;;;;;15.30;8.00;;;-1.50;99.90;;;;;;5085642;28;20055;-75
2022/12/18 01:35:00;;;;;;;19.38;8.57;;;-1.50;99.90;;;;;;5086494;28;20028;-75
2022/12/18 01:37:25;;;;;;;24.25;9.77;;;-1.50;99.90;;;;;;5072387;28;20407;-75
2022/12/18 01:39:54;;;;;;;19.83;10.20;;;-1.50;99.90;;;;;;5071609;28;20443;-75
2022/12/18 01:42:19;;;;;;;19.63;8.02;;;-1.50;99.90;;;;;;5054651;28;20460;-75
2022/12/18 01:45:21;;;;;;;20.30;9.18;;;-1.50;99.90;;;;;;5066441;28;20115;-75
2022/12/18 01:47:52;;;;;;;15.35;7.55;;;-1.50;99.90;;;;;;5069453;28;20464;-75
2022/12/18 01:50:41;;;;;;;23.45;10.13;;;-1.50;99.90;;;;;;5090749;28;20044;-74
2022/12/18 01:53:15;;;;;;;26.13;7.88;;;-1.50;99.90;;;;;;5059826;28;20497;-75
2022/12/18 01:55:48;;;;;;;23.27;11.40;;;-1.50;99.90;;;;;;5089938;28;20036;-74
2022/12/18 01:58:13;;;;;;;33.40;12.48;;;-1.50;99.90;;;;;;5071070;28;20037;-75
2022/12/18 02:00:39;;;;;;;21.77;9.15;;;-1.40;99.90;;;;;;5051213;28;20414;-75
2022/12/18 02:03:05;;;;;;;22.33;7.20;;;-1.40;99.90;;;;;;5090231;28;20039;-75
2022/12/18 02:05:41;;;;;;;21.75;9.15;;;-1.50;99.90;;;;;;5093105;28;20028;-75
2022/12/18 02:08:20;;;;;;;29.83;9.32;;;-1.50;99.90;;;;;;5091660;28;20040;-75
2022/12/18 02:11:01;;;;;;;21.90;11.68;;;-1.50;99.90;;;;;;5086278;28;20071;-75
2022/12/18 02:13:45;;;;;;;21.00;9.50;;;-1.50;99.90;;;;;;5116685;27;20087;-75
2022/12/18 02:16:23;;;;;;;22.88;9.55;;;-1.60;99.90;;;;;;5112708;27;20047;-75
2022/12/18 02:18:54;;;;;;;18.85;10.98;;;-1.60;99.90;;;;;;5070557;28;20541;-75
2022/12/18 02:21:45;;;;;;;14.93;8.40;;;-1.60;99.90;;;;;;5102927;28;20040;-74
2022/12/18 02:24:30;;;;;;;19.48;8.68;;;-1.70;99.90;;;;;;5060894;28;20040;-75
2022/12/18 02:27:04;;;;;;;25.20;12.63;;;-1.70;99.90;;;;;;5077122;28;20040;-75
2022/12/18 02:29:37;;;;;;;26.05;10.35;;;-1.70;99.90;;;;;;5100361;28;20037;-75
2022/12/18 02:32:10;;;;;;;29.25;9.40;;;-1.70;99.90;;;;;;5052804;28;20036;-74
2022/12/18 02:34:41;;;;;;;16.35;8.95;;;-1.70;99.90;;;;;;5086203;28;20033;-75
2022/12/18 02:37:11;;;;;;;17.90;9.13;;;-1.80;99.90;;;;;;5101767;28;20447;-74
2022/12/18 02:39:39;;;;;;;14.68;7.32;;;-1.80;99.90;;;;;;5085097;28;20039;-75
2022/12/18 02:42:08;;;;;;;18.83;8.20;;;-1.80;99.90;;;;;;5034619;28;20628;-74
2022/12/18 02:44:41;;;;;;;24.77;6.30;;;-1.80;99.90;;;;;;5064882;28;20917;-75
2022/12/18 02:47:12;;;;;;;22.33;8.80;;;-1.80;99.90;;;;;;5110821;27;20123;-75
2022/12/18 02:50:15;;;;;;;16.13;6.53;;;-1.90;99.90;;;;;;5109666;27;20044;-74
2022/12/18 02:53:05;;;;;;;15.00;7.50;;;-1.80;99.90;;;;;;5047172;28;20444;-75
2022/12/18 02:55:47;;;;;;;19.40;7.50;;;-1.90;99.90;;;;;;5089668;28;20405;-75
2022/12/18 02:58:16;;;;;;;15.40;8.45;;;-1.90;99.90;;;;;;5102330;28;20046;-75
2022/12/18 03:01:05;;;;;;;23.40;8.77;;;-1.90;99.90;;;;;;5070852;28;20602;-75
2022/12/18 03:03:44;;;;;;;22.35;7.60;;;-2.00;99.90;;;;;;5112837;27;20032;-74
2022/12/18 03:06:23;;;;;;;22.52;10.32;;;-2.00;99.90;;;;;;5064009;28;20033;-75
2022/12/18 03:08:56;;;;;;;13.93;7.38;;;-2.00;99.90;;;;;;5101635;27;20090;-75
2022/12/18 03:12:22;;;;;;;20.67;9.07;;;-2.00;99.90;;;;;;5085387;28;20039;-75
2022/12/18 03:14:08;;;;;;;22.52;8.90;;;-2.00;99.90;;;;;;5066877;28;20132;-74
2022/12/18 03:16:36;;;;;;;17.95;8.23;;;-2.00;99.90;;;;;;5100281;27;20063;-74
2022/12/18 03:19:06;;;;;;;22.40;7.93;;;-2.00;99.90;;;;;;5050699;28;20495;-74
2022/12/18 03:21:54;;;;;;;13.45;7.95;;;-2.00;99.90;;;;;;5069494;28;20140;-74
2022/12/18 03:24:21;;;;;;;20.45;11.43;;;-2.00;99.90;;;;;;5084014;28;20055;-74
2022/12/18 03:26:50;;;;;;;21.27;8.05;;;-2.00;99.90;;;;;;5099654;28;20493;-74
2022/12/18 03:29:26;;;;;;;12.98;7.70;;;-2.00;99.90;;;;;;5097356;28;20032;-74
2022/12/18 03:31:56;;;;;;;21.33;10.00;;;-2.00;99.90;;;;;;5105619;27;20036;-74
2022/12/18 03:34:33;;;;;;;13.23;7.93;;;-2.10;99.90;;;;;;5064299;28;20032;-74
2022/12/18 03:37:03;;;;;;;18.17;8.00;;;-2.10;99.90;;;;;;5085655;28;20405;-74
2022/12/18 03:39:28;;;;;;;23.90;8.07;;;-2.10;99.90;;;;;;5067838;28;20033;-74
2022/12/18 03:42:13;;;;;;;21.42;8.48;;;-2.20;99.90;;;;;;5085382;28;20042;-74
2022/12/18 03:44:57;;;;;;;10.68;6.78;;;-2.20;99.90;;;;;;5100120;28;20051;-74
2022/12/18 03:47:34;;;;;;;18.20;7.85;;;-2.30;99.90;;;;;;5101009;27;20486;-74
2022/12/18 03:50:03;;;;;;;21.33;8.30;;;-2.30;99.90;;;;;;5049571;28;20036;-74
2022/12/18 03:52:51;;;;;;;8.13;6.78;;;-2.30;99.90;;;;;;5052287;28;20117;-74
2022/12/18 03:55:19;;;;;;;26.95;8.73;;;-2.30;99.90;;;;;;5084583;28;20481;-74
2022/12/18 03:57:46;;;;;;;25.95;9.27;;;-2.30;99.90;;;;;;5122666;27;20093;-74
2022/12/18 04:00:15;;;;;;;10.55;5.60;;;-2.30;99.90;;;;;;5102447;28;20691;-74
2022/12/18 04:02:55;;;;;;;13.98;6.38;;;-2.30;99.90;;;;;;5105530;27;20060;-74
2022/12/18 04:05:22;;;;;;;16.70;7.22;;;-2.30;99.90;;;;;;5098672;28;20044;-74
2022/12/18 04:07:49;;;;;;;17.60;7.68;;;-2.30;99.90;;;;;;5048720;28;20048;-74
2022/12/18 04:10:16;;;;;;;16.73;6.45;;;-2.30;99.90;;;;;;5101908;28;20033;-74
2022/12/18 04:12:42;;;;;;;13.32;8.15;;;-2.30;99.90;;;;;;5061274;28;20492;-74
2022/12/18 04:15:10;;;;;;;10.27;6.32;;;-2.40;99.90;;;;;;5078084;28;20086;-74
2022/12/18 04:17:37;;;;;;;9.77;4.97;;;-2.40;99.90;;;;;;5083798;28;20391;-74
2022/12/18 04:20:03;;;;;;;13.68;6.20;;;-2.40;99.90;;;;;;5051228;28;20052;-74
2022/12/18 04:22:28;;;;;;;16.85;8.57;;;-2.40;99.90;;;;;;5068039;28;20036;-74
2022/12/18 04:24:54;;;;;;;19.92;9.05;;;-2.40;99.90;;;;;;5067570;28;20070;-74
2022/12/18 04:27:20;;;;;;;11.20;6.05;;;-2.40;99.90;;;;;;5068440;28;20132;-74
2022/12/18 04:29:45;;;;;;;10.98;6.75;;;-2.40;99.90;;;;;;5060359;28;20093;-74
2022/12/18 04:32:11;;;;;;;12.07;6.15;;;-2.40;99.90;;;;;;5104548;28;20036;-74
2022/12/18 04:34:36;;;;;;;17.33;6.15;;;-2.40;99.90;;;;;;5077841;28;20500;-74
2022/12/18 04:37:02;;;;;;;18.60;5.70;;;-2.40;99.90;;;;;;5093678;28;20048;-74
2022/12/18 04:39:28;;;;;;;12.40;6.22;;;-2.40;99.90;;;;;;5065164;28;20031;-74
2022/12/18 04:41:53;;;;;;;16.08;6.10;;;-2.40;99.90;;;;;;5050155;28;20037;-73
2022/12/18 04:44:19;;;;;;;16.45;8.25;;;-2.40;99.90;;;;;;5065515;28;20159;-74
2022/12/18 04:46:44;;;;;;;25.73;7.28;;;-2.40;99.90;;;;;;5065580;28;20036;-74
2022/12/18 04:49:10;;;;;;;7.20;5.18;;;-2.40;99.90;;;;;;5081448;28;20450;-74
2022/12/18 04:51:37;;;;;;;7.43;4.88;;;-2.50;99.90;;;;;;5067422;28;20056;-74
2022/12/18 04:54:02;;;;;;;23.88;7.57;;;-2.50;99.90;;;;;;5082894;28;20041;-74
2022/12/18 04:56:28;;;;;;;10.98;5.07;;;-2.40;99.90;;;;;;5075465;28;20447;-74
2022/12/18 04:58:54;;;;;;;10.15;3.72;;;-2.40;99.90;;;;;;5074680;28;20511;-74
2022/12/18 05:01:19;;;;;;;12.88;6.35;;;-2.40;99.90;;;;;;5062521;28;20068;-74
2022/12/18 05:03:45;;;;;;;13.90;6.65;;;-2.40;99.90;;;;;;5063827;28;20133;-74
2022/12/18 05:06:10;;;;;;;11.32;5.47;;;-2.40;99.90;;;;;;5065805;28;20387;-74
2022/12/18 05:08:36;;;;;;;9.93;5.85;;;-2.50;99.90;;;;;;5062173;28;20029;-74
2022/12/18 05:11:05;;;;;;;12.30;4.90;;;-2.50;99.90;;;;;;5073169;28;20044;-74
2022/12/18 05:13:32;;;;;;;16.95;6.03;;;-2.40;99.90;;;;;;5049936;28;20056;-74
2022/12/18 05:15:57;;;;;;;12.45;5.68;;;-2.40;99.90;;;;;;5083104;28;20052;-74
2022/12/18 05:18:24;;;;;;;11.93;5.18;;;-2.50;99.90;;;;;;5063056;28;20175;-74
2022/12/18 05:20:51;;;;;;;9.88;5.60;;;-2.50;99.90;;;;;;5101408;28;20040;-74
2022/12/18 05:23:16;;;;;;;11.20;6.30;;;-2.50;99.90;;;;;;5082960;28;20033;-74
2022/12/18 05:25:48;;;;;;;12.10;5.78;;;-2.50;99.90;;;;;;5084818;28;20043;-74
2022/12/18 05:28:14;;;;;;;14.18;6.57;;;-2.50;99.90;;;;;;5093524;28;20048;-74
2022/12/18 05:30:46;;;;;;;12.63;7.70;;;-2.50;99.90;;;;;;5086362;28;20040;-74
2022/12/18 05:33:12;;;;;;;14.40;5.80;;;-2.60;99.90;;;;;;5106839;28;20050;-74
2022/12/18 05:35:38;;;;;;;16.42;5.40;;;-2.50;99.90;;;;;;5083685;28;20040;-75
2022/12/18 05:38:03;;;;;;;15.75;4.68;;;-2.50;99.90;;;;;;5049864;28;20097;-75
2022/12/18 05:40:29;;;;;;;17.27;7.53;;;-2.50;99.90;;;;;;5081268;28;20037;-75
2022/12/18 05:42:54;;;;;;;15.27;5.10;;;-2.50;99.90;;;;;;5066316;28;20036;-75
2022/12/18 05:45:20;;;;;;;11.57;5.45;;;-2.50;99.90;;;;;;5065221;28;20107;-75
2022/12/18 05:47:45;;;;;;;13.65;5.13;;;-2.60;99.90;;;;;;5047802;28;20070;-75
2022/12/18 05:50:11;;;;;;;13.05;6.68;;;-2.60;99.90;;;;;;5067758;28;20040;-74
2022/12/18 05:52:37;;;;;;;12.30;5.32;;;-2.60;99.90;;;;;;5066803;28;20073;-75
2022/12/18 05:55:02;;;;;;;9.63;6.20;;;-2.60;99.90;;;;;;5101229;28;20036;-75
2022/12/18 05:57:28;;;;;;;16.30;5.78;;;-2.60;99.90;;;;;;5065062;28;20106;-75
2022/12/18 05:59:54;;;;;;;11.20;6.95;;;-2.70;99.90;;;;;;5103075;28;20025;-75
2022/12/18 06:02:20;;;;;;;8.52;3.95;;;-2.60;99.90;;;;;;5064271;28;20032;-75
2022/12/18 06:04:46;;;;;;;8.45;4.20;;;-2.60;99.90;;;;;;5100638;27;20555;-75
2022/12/18 06:07:12;;;;;;;20.20;5.60;;;-2.60;99.90;;;;;;5070158;28;20036;-74
2022/12/18 06:09:38;;;;;;;14.60;7.10;;;-2.60;99.90;;;;;;5070976;28;20040;-75
2022/12/18 06:12:04;;;;;;;12.50;6.93;;;-2.60;99.90;;;;;;5052760;28;20135;-75
2022/12/18 06:14:29;;;;;;;13.52;6.68;;;-2.60;99.90;;;;;;5073225;28;20075;-75
2022/12/18 06:16:55;;;;;;;12.30;5.35;;;-2.60;99.90;;;;;;5071013;28;20040;-75
2022/12/18 06:19:20;;;;;;;10.50;5.13;;;-2.70;99.90;;;;;;5070620;28;20086;-75
2022/12/18 06:21:46;;;;;;;13.88;5.65;;;-2.70;99.90;;;;;;5068747;28;20032;-75
2022/12/18 06:24:12;;;;;;;18.70;6.20;;;-2.80;99.90;;;;;;5068818;28;20574;-75
2022/12/18 06:26:41;;;;;;;13.10;4.43;;;-2.80;99.90;;;;;;5094326;28;20071;-76
2022/12/18 06:29:06;;;;;;;8.00;4.47;;;-2.90;99.90;;;;;;5087505;28;20040;-75
2022/12/18 06:31:32;;;;;;;12.10;3.95;;;-2.90;99.90;;;;;;5062178;28;20482;-75
2022/12/18 06:33:58;;;;;;;16.83;6.20;;;-3.00;99.90;;;;;;5069735;28;20041;-75
2022/12/18 06:36:24;;;;;;;16.83;5.03;;;-3.00;99.90;;;;;;5086312;28;20028;-75
2022/12/18 06:38:49;;;;;;;8.95;5.63;;;-3.00;99.90;;;;;;5067948;28;20040;-75
2022/12/18 06:41:20;;;;;;;11.52;5.00;;;-3.00;99.90;;;;;;5069436;28;20040;-75
2022/12/18 06:43:46;;;;;;;8.15;6.10;;;-3.00;99.90;;;;;;5085386;28;20041;-75
2022/12/18 06:46:12;;;;;;;16.50;5.35;;;-3.00;99.90;;;;;;5064167;28;20040;-75
2022/12/18 06:48:38;;;;;;;13.52;5.65;;;-2.90;99.90;;;;;;5069641;28;20197;-75
2022/12/18 06:51:04;;;;;;;12.00;5.25;;;-2.90;99.90;;;;;;5085385;28;20036;-75
2022/12/18 06:53:31;;;;;;;13.70;5.50;;;-3.00;99.90;;;;;;5067674;28;20054;-75
2022/12/18 06:56:05;;;;;;;12.70;5.65;;;-3.00;99.90;;;;;;5087094;28;20048;-75
2022/12/18 06:58:32;;;;;;;16.73;4.60;;;-3.00;99.90;;;;;;5100700;28;20036;-75
2022/12/18 07:01:01;;;;;;;8.48;5.35;;;-3.10;99.90;;;;;;5074711;28;20040;-76
2022/12/18 07:03:27;;;;;;;9.52;5.43;;;-3.10;99.90;;;;;;5051870;28;20037;-76
2022/12/18 07:05:53;;;;;;;12.57;6.13;;;-3.10;99.90;;;;;;5052343;28;20217;-75
2022/12/18 07:08:18;;;;;;;7.82;4.85;;;-3.20;99.90;;;;;;5066426;28;20051;-75
2022/12/18 07:10:44;;;;;;;9.55;3.53;;;-3.10;99.90;;;;;;5068622;28;20041;-76
2022/12/18 07:13:10;;;;;;;6.82;4.35;;;-3.10;99.90;;;;;;5084716;28;20043;-76
2022/12/18 07:15:36;;;;;;;9.20;5.13;;;-3.10;99.90;;;;;;5081663;28;20137;-76
2022/12/18 07:18:01;;;;;;;9.95;5.30;;;-3.00;99.90;;;;;;5050958;28;20046;-76
2022/12/18 07:20:27;;;;;;;5.25;3.55;;;-3.00;99.90;;;;;;5069518;28;20075;-76
2022/12/18 07:22:52;;;;;;;10.80;3.75;;;-3.00;99.90;;;;;;5066708;28;20040;-76
2022/12/18 07:25:18;;;;;;;10.57;4.15;;;-3.00;99.90;;;;;;5067540;28;20029;-76
2022/12/18 07:27:43;;;;;;;13.60;6.03;;;-3.10;99.90;;;;;;5070136;28;20051;-76
2022/12/18 07:30:10;;;;;;;11.63;5.50;;;-3.10;99.90;;;;;;5058243;28;20038;-76
2022/12/18 07:32:35;;;;;;;9.93;4.30;;;-3.00;99.90;;;;;;5100413;27;20044;-76
2022/12/18 07:35:01;;;;;;;10.00;3.88;;;-3.00;99.90;;;;;;5067965;28;20040;-76
2022/12/18 07:37:26;;;;;;;8.30;3.83;;;-3.00;99.90;;;;;;5063147;28;20114;-76
2022/12/18 07:39:52;;;;;;;13.48;5.63;;;-3.00;99.90;;;;;;5060579;28;20458;-76
2022/12/18 07:42:33;;;;;;;7.63;4.82;;;-3.00;99.90;;;;;;5081849;28;20058;-76
2022/12/18 07:45:02;;;;;;;13.82;4.80;;;-3.00;99.90;;;;;;5063856;28;20050;-76
2022/12/18 07:47:28;;;;;;;11.13;4.20;;;-3.00;99.90;;;;;;5060158;28;20072;-76
2022/12/18 07:49:54;;;;;;;9.32;5.13;;;-2.90;99.90;;;;;;5063527;28;20078;-75
2022/12/18 07:52:19;;;;;;;12.65;5.15;;;-3.00;99.90;;;;;;5096557;27;20618;-76
2022/12/18 07:54:45;;;;;;;7.88;5.15;;;-2.90;99.90;;;;;;5058321;28;20132;-76
2022/12/18 07:57:11;;;;;;;12.52;4.93;;;-2.90;99.90;;;;;;5048652;28;20036;-76
2022/12/18 07:59:36;;;;;;;9.57;5.32;;;-2.90;99.90;;;;;;5092939;28;20029;-76
2022/12/18 08:02:02;;;;;;;11.90;6.28;;;-2.90;99.90;;;;;;5060735;28;20036;-77
2022/12/18 08:04:28;;;;;;;11.68;4.85;;;-2.90;99.90;;;;;;5047224;28;20485;-76
2022/12/18 08:06:54;;;;;;;8.25;3.05;;;-2.90;99.90;;;;;;5065905;28;20064;-76
2022/12/18 08:09:20;;;;;;;5.10;3.38;;;-2.90;99.90;;;;;;5094349;28;20028;-77
2022/12/18 08:11:45;;;;;;;6.97;4.28;;;-2.80;99.90;;;;;;5061977;28;20046;-77
2022/12/18 08:14:11;;;;;;;6.47;4.60;;;-2.80;99.90;;;;;;5057039;28;20094;-76
2022/12/18 08:16:37;;;;;;;5.07;3.85;;;-2.80;99.90;;;;;;5044658;28;20036;-77
2022/12/18 08:19:02;;;;;;;12.95;5.75;;;-2.80;99.90;;;;;;5082230;28;20043;-77
2022/12/18 08:21:30;;;;;;;7.95;4.47;;;-2.80;99.90;;;;;;5085195;28;20048;-77
2022/12/18 08:23:58;;;;;;;10.13;4.90;;;-2.80;99.90;;;;;;5099495;28;20041;-76
2022/12/18 08:26:25;;;;;;;4.30;3.38;;;-2.70;99.90;;;;;;5064722;28;20036;-76
2022/12/18 08:28:52;;;;;;;11.90;6.57;;;-2.70;99.90;;;;;;5099741;27;20058;-79
2022/12/18 08:31:18;;;;;;;5.82;4.32;;;-2.70;99.90;;;;;;5100955;28;20047;-75
2022/12/18 08:33:44;;;;;;;7.03;4.97;;;-2.70;99.90;;;;;;5093828;28;20422;-76
2022/12/18 08:36:10;;;;;;;5.40;4.90;;;-2.60;99.90;;;;;;5080179;28;20060;-76
2022/12/18 08:38:36;;;;;;;5.72;3.75;;;-2.60;99.90;;;;;;5099396;27;20032;-77
2022/12/18 08:41:03;;;;;;;14.63;3.90;;;-2.50;99.90;;;;;;5091794;28;20036;-76
2022/12/18 08:46:14;;;;;;;6.72;4.07;;;-2.50;99.90;;;;;;5060527;28;20041;-77
2022/12/18 08:48:40;;;;;;;11.82;3.97;;;-2.40;99.90;;;;;;5060494;28;20047;-76
2022/12/18 08:51:05;;;;;;;11.48;4.00;;;-2.40;99.90;;;;;;5062864;28;20043;-77
2022/12/18 08:53:31;;;;;;;6.65;3.42;;;-2.30;99.90;;;;;;5069486;28;20078;-77
2022/12/18 08:55:57;;;;;;;6.10;3.55;;;-2.30;99.90;;;;;;5066480;28;20045;-77
2022/12/18 08:58:23;;;;;;;4.50;2.22;;;-2.30;99.90;;;;;;5049974;28;20043;-77
2022/12/18 09:00:49;;;;;;;7.82;3.20;;;-2.30;99.90;;;;;;5065655;28;20611;-78
2022/12/18 09:03:16;;;;;;;10.75;4.25;;;-2.20;99.90;;;;;;5061769;28;20558;-78
2022/12/18 09:05:42;;;;;;;4.07;3.65;;;-2.20;99.90;;;;;;5067090;28;20110;-78
2022/12/18 09:08:07;;;;;;;8.38;3.42;;;-2.10;99.90;;;;;;5066097;28;20490;-78
2022/12/18 09:10:34;;;;;;;4.82;4.05;;;-2.10;99.90;;;;;;5061396;28;20394;-78
2022/12/18 09:12:59;;;;;;;10.05;5.65;;;-2.10;99.90;;;;;;5046346;28;20040;-78
2022/12/18 09:15:25;;;;;;;7.78;3.60;;;-2.10;99.90;;;;;;5069151;28;20057;-78
2022/12/18 09:17:52;;;;;;;4.50;2.47;;;-2.10;99.90;;;;;;5064617;28;20044;-78
2022/12/18 09:20:18;;;;;;;3.15;2.85;;;-2.00;99.90;;;;;;5071861;28;20036;-78
2022/12/18 09:22:44;;;;;;;4.13;3.00;;;-2.00;99.90;;;;;;5090412;28;20063;-78
2022/12/18 09:25:10;;;;;;;4.65;3.80;;;-2.00;99.90;;;;;;5058786;28;20033;-77
2022/12/18 09:27:35;;;;;;;7.55;3.35;;;-1.90;99.90;;;;;;5064117;28;20102;-77
2022/12/18 09:30:02;;;;;;;7.20;4.35;;;-1.90;99.90;;;;;;5072471;28;20078;-77
2022/12/18 09:32:27;;;;;;;3.72;2.28;;;-1.90;99.90;;;;;;5065383;28;20037;-78
2022/12/18 09:34:53;;;;;;;4.90;2.85;;;-1.90;99.90;;;;;;5082045;28;20047;-78
2022/12/18 09:37:19;;;;;;;7.00;4.35;;;-1.80;99.90;;;;;;5079842;28;20101;-77
2022/12/18 09:39:44;;;;;;;3.35;2.15;;;-1.80;99.90;;;;;;5089831;28;20050;-78
2022/12/18 09:42:20;;;;;;;5.25;3.22;;;-1.80;99.90;;;;;;5067438;28;20029;-78
2022/12/18 09:44:50;;;;;;;4.80;4.03;;;-1.80;99.90;;;;;;5100459;27;20119;-77
2022/12/18 09:47:34;;;;;;;5.57;2.90;;;-1.70;99.90;;;;;;5081238;28;20504;-78
2022/12/18 09:50:04;;;;;;;7.00;2.83;;;-1.70;99.90;;;;;;5072599;28;20126;-77
2022/12/18 09:52:41;;;;;;;8.13;2.55;;;-1.60;99.90;;;;;;5063932;28;20209;-77
2022/12/18 09:55:30;;;;;;;4.82;2.75;;;-1.60;99.90;;;;;;5097800;28;20032;-77
2022/12/18 09:58:02;;;;;;;2.47;1.98;;;-1.60;99.90;;;;;;5113929;27;20414;-77
2022/12/18 10:00:27;;;;;;;10.98;2.47;;;-1.50;99.90;;;;;;5101909;28;20436;-78
2022/12/18 10:03:01;;;;;;;6.72;2.30;;;-1.50;99.90;;;;;;5099957;27;20040;-77
2022/12/18 10:06:13;;;;;;;3.92;2.00;;;-1.50;99.90;;;;;;5071700;28;20436;-77
2022/12/18 10:09:18;;;;;;;3.30;1.73;;;-1.40;99.90;;;;;;5089489;27;20093;-78
2022/12/18 10:11:49;;;;;;;5.57;1.55;;;-1.40;99.90;;;;;;5061037;28;20048;-77
2022/12/18 10:14:20;;;;;;;3.03;1.50;;;-1.40;99.90;;;;;;5066616;28;20070;-77
2022/12/18 10:16:46;;;;;;;2.78;2.10;;;-1.30;99.90;;;;;;5066555;28;20119;-77
2022/12/18 10:19:26;;;;;;;3.63;1.83;;;-1.30;99.90;;;;;;5066899;28;20490;-77
2022/12/18 10:22:28;;;;;;;2.60;1.60;;;-1.30;99.90;;;;;;5056532;28;20041;-77
2022/12/18 10:25:22;;;;;;;2.45;1.80;;;-1.30;99.90;;;;;;5067127;28;20047;-77
2022/12/18 10:27:51;;;;;;;5.15;2.05;;;-1.30;99.90;;;;;;5045071;28;20050;-77
2022/12/18 10:30:19;;;;;;;4.30;1.95;;;-1.30;99.90;;;;;;5085673;28;20166;-77
2022/12/18 10:32:45;;;;;;;7.45;2.58;;;-1.30;99.90;;;;;;5065715;28;20057;-78
2022/12/18 10:35:25;;;;;;;2.30;1.75;;;-1.30;99.90;;;;;;5066992;28;20497;-78
2022/12/18 10:38:04;;;;;;;1.85;1.55;;;-1.30;99.90;;;;;;5121866;27;20036;-77
2022/12/18 10:40:30;;;;;;;2.85;2.13;;;-1.20;99.90;;;;;;5104495;27;20040;-77
2022/12/18 10:43:05;;;;;;;5.78;1.58;;;-1.20;99.90;;;;;;5083522;28;20406;-78
2022/12/18 10:45:31;;;;;;;5.82;1.88;;;-1.20;99.90;;;;;;5071650;28;20053;-76
2022/12/18 10:47:57;;;;;;;3.72;1.38;;;-1.20;99.90;;;;;;5070830;28;20048;-76
2022/12/18 10:50:29;;;;;;;2.90;1.20;;;-1.20;99.90;;;;;;5069706;28;20041;-76
2022/12/18 10:52:58;;;;;;;2.80;2.30;;;-1.20;99.90;;;;;;5098337;28;20490;-76
2022/12/18 10:55:31;;;;;;;2.03;1.17;;;-1.20;99.90;;;;;;5110041;27;20035;-77
2022/12/18 10:58:28;;;;;;;1.48;1.20;;;-1.10;99.90;;;;;;5086063;28;20097;-77
2022/12/18 11:01:15;;;;;;;2.22;1.65;;;-1.10;99.90;;;;;;5062750;28;20124;-77
2022/12/18 11:03:45;;;;;;;3.67;1.88;;;-1.00;99.90;;;;;;5044060;28;20121;-76
2022/12/18 11:06:13;;;;;;;3.58;2.60;;;-1.00;99.90;;;;;;5100453;28;20051;-76
2022/12/18 11:08:42;;;;;;;2.80;1.48;;;-0.90;99.90;;;;;;5073701;28;20079;-76
2022/12/18 11:11:20;;;;;;;4.38;1.58;;;-0.90;99.90;;;;;;5093566;27;20041;-77
2022/12/18 11:14:05;;;;;;;3.95;1.45;;;-0.80;99.90;;;;;;5069862;28;20045;-76
2022/12/18 11:16:36;;;;;;;6.60;2.08;;;-0.80;99.90;;;;;;5088469;28;20549;-76
2022/12/18 11:19:24;;;;;;;4.90;2.28;;;-0.80;99.90;;;;;;5074056;28;20503;-77
2022/12/18 11:21:50;;;;;;;2.95;1.75;;;-0.70;99.90;;;;;;5058934;28;20047;-76
2022/12/18 11:24:29;;;;;;;3.75;1.80;;;-0.70;99.90;;;;;;5073519;28;20409;-75
2022/12/18 11:26:59;;;;;;;4.63;2.30;;;-0.70;99.90;;;;;;5098891;27;20513;-75
2022/12/18 11:29:32;;;;;;;3.25;2.00;;;-0.70;99.90;;;;;;5084830;28;20036;-76
2022/12/18 11:32:38;;;;;;;3.83;2.67;;;-0.70;99.90;;;;;;5061364;28;20044;-76
2022/12/18 11:35:11;;;;;;;3.78;1.75;;;-0.60;99.90;;;;;;5034355;28;20473;-76
2022/12/18 11:37:38;;;;;;;2.95;1.60;;;-0.60;99.90;;;;;;5048374;28;20170;-76
2022/12/18 11:40:15;;;;;;;8.18;1.77;;;-0.60;99.90;;;;;;5098656;27;20079;-76
2022/12/18 11:42:53;;;;;;;3.45;2.25;;;-0.60;99.90;;;;;;5070189;28;20065;-75
2022/12/18 11:45:36;;;;;;;4.10;2.47;;;-0.60;99.90;;;;;;5102005;27;20041;-76
2022/12/18 11:48:18;;;;;;;3.80;2.30;;;-0.60;99.90;;;;;;5066728;28;20032;-77
2022/12/18 11:50:53;;;;;;;5.50;2.60;;;-0.60;99.90;;;;;;5109169;27;20032;-75
2022/12/18 11:53:19;;;;;;;5.05;2.08;;;-0.50;99.90;;;;;;5108786;27;20040;-75
2022/12/18 11:56:04;;;;;;;3.55;2.25;;;-0.50;99.90;;;;;;5101384;28;20051;-75
2022/12/18 11:58:54;;;;;;;5.78;2.15;;;-0.50;99.90;;;;;;5068635;28;20071;-75
2022/12/18 12:01:34;;;;;;;3.10;2.22;;;-0.50;99.90;;;;;;5068087;28;20043;-75
2022/12/18 12:04:13;;;;;;;4.90;1.92;;;-0.50;99.90;;;;;;5123078;27;20212;-75
2022/12/18 12:06:45;;;;;;;4.45;2.40;;;-0.50;99.90;;;;;;5106028;28;20036;-75
2022/12/18 12:09:37;;;;;;;5.82;1.65;;;-0.50;99.90;;;;;;5106204;28;20089;-75
2022/12/18 12:12:09;;;;;;;2.58;1.77;;;-0.50;99.90;;;;;;5068804;28;20036;-75
2022/12/18 12:14:47;;;;;;;2.25;1.92;;;-0.40;99.90;;;;;;5051599;28;20060;-75
2022/12/18 12:17:37;;;;;;;3.45;1.70;;;-0.40;99.90;;;;;;5061800;28;20044;-75
2022/12/18 12:20:23;;;;;;;6.07;1.80;;;-0.40;99.90;;;;;;5082024;28;20487;-75
2022/12/18 12:23:30;;;;;;;2.88;2.00;;;-0.40;99.90;;;;;;5048503;28;20033;-75
2022/12/18 12:26:00;;;;;;;4.78;1.98;;;-0.30;99.90;;;;;;5048069;28;20045;-75
2022/12/18 12:28:41;;;;;;;4.65;2.13;;;-0.30;99.90;;;;;;5064509;28;20081;-75
2022/12/18 12:31:36;;;;;;;2.10;1.48;;;-0.30;99.90;;;;;;5058357;28;20043;-75
2022/12/18 12:34:26;;;;;;;2.55;1.40;;;-0.40;99.90;;;;;;5121972;27;20044;-75
2022/12/18 12:37:00;;;;;;;3.65;1.45;;;-0.40;99.90;;;;;;5047794;28;20044;-75
2022/12/18 12:39:40;;;;;;;6.63;2.63;;;-0.30;99.90;;;;;;5031487;28;20503;-75
2022/12/18 12:45:23;;;;;;;2.60;1.90;;;-0.40;99.90;;;;;;5069856;28;20068;-75
2022/12/18 12:47:50;;;;;;;3.95;2.00;;;-0.30;99.90;;;;;;5101946;28;20040;-75
2022/12/18 12:50:19;;;;;;;7.05;2.40;;;-0.30;99.90;;;;;;5122085;27;20082;-75
2022/12/18 12:52:54;;;;;;;4.00;2.08;;;-0.30;99.90;;;;;;5121678;27;20055;-75
2022/12/18 12:55:23;;;;;;;2.97;1.58;;;-0.30;99.90;;;;;;5121976;27;20040;-75
2022/12/18 12:57:59;;;;;;;4.90;2.35;;;-0.30;99.90;;;;;;5098840;28;20120;-75
2022/12/18 13:00:27;;;;;;;3.65;2.22;;;-0.20;99.90;;;;;;5049282;28;20595;-75
2022/12/18 13:03:01;;;;;;;4.15;2.05;;;-0.20;99.90;;;;;;5083771;28;20490;-75
2022/12/18 13:05:50;;;;;;;2.75;1.83;;;-0.20;99.90;;;;;;5120635;28;20043;-75